createdAt,value
2022-08-11T00:01:21.228Z,94.80
2022-08-11T00:03:53.082Z,94.80
2022-08-11T00:06:46.620Z,95.00
2022-08-11T00:09:18.201Z,95.00
2022-08-11T00:11:53.374Z,95.10
2022-08-11T00:14:37.314Z,95.00
2022-08-11T00:17:13.396Z,95.10
2022-08-11T00:20:15.413Z,95.10
2022-08-11T00:22:32.331Z,95.20
2022-08-11T00:25:02.715Z,95.10
2022-08-11T00:27:34.588Z,95.30
2022-08-11T00:30:01.651Z,95.50
2022-08-11T00:32:29.790Z,95.60
2022-08-11T00:35:55.873Z,95.60
2022-08-11T00:37:50.328Z,95.60
2022-08-11T00:40:28.172Z,95.70
2022-08-11T00:43:19.325Z,95.80
2022-08-11T00:46:02.516Z,96.00
2022-08-11T00:48:39.762Z,96.00
2022-08-11T00:52:04.386Z,96.00
2022-08-11T00:54:55.980Z,96.00
2022-08-11T00:57:38.554Z,97.40
2022-08-11T01:00:25.110Z,96.10
2022-08-11T01:03:29.988Z,96.10
2022-08-11T01:06:38.060Z,96.20
2022-08-11T01:09:22.116Z,96.20
2022-08-11T01:12:10.438Z,96.30
2022-08-11T01:15:14.624Z,96.60
2022-08-11T01:18:06.164Z,96.90
2022-08-11T01:21:14.076Z,96.90
2022-08-11T01:24:18.261Z,97.00
2022-08-11T01:27:18.930Z,97.10
2022-08-11T01:30:14.323Z,97.20
2022-08-11T01:33:20.016Z,97.40
2022-08-11T01:36:33.748Z,97.40
2022-08-11T01:39:41.608Z,97.60
2022-08-11T01:45:16.776Z,97.90
2022-08-11T01:47:55.504Z,98.20
2022-08-11T01:50:53.181Z,98.30
2022-08-11T01:53:50.364Z,98.50
2022-08-11T01:56:58.714Z,98.60
2022-08-11T01:59:35.941Z,98.70
2022-08-11T02:02:08.317Z,98.80
2022-08-11T02:04:55.387Z,98.90
2022-08-11T02:07:55.593Z,98.90
2022-08-11T02:11:08.334Z,98.90
2022-08-11T02:14:02.729Z,99.00
2022-08-11T02:16:40.634Z,99.10
2022-08-11T02:22:21.391Z,99.30
2022-08-11T02:25:04.224Z,99.30
2022-08-11T02:28:05.894Z,99.20
2022-08-11T02:30:38.503Z,99.30
2022-08-11T02:33:24.758Z,99.30
2022-08-11T02:36:00.780Z,99.30
2022-08-11T02:38:46.148Z,99.30
2022-08-11T02:41:43.428Z,99.30
2022-08-11T02:44:15.715Z,99.30
2022-08-11T02:47:27.574Z,99.40
2022-08-11T02:50:09.381Z,99.40
2022-08-11T02:53:03.434Z,99.30
2022-08-11T02:55:44.568Z,99.40
2022-08-11T02:59:05.849Z,99.50
2022-08-11T03:01:45.571Z,99.60
2022-08-11T03:04:25.174Z,99.80
2022-08-11T03:07:31.207Z,99.90
2022-08-11T03:10:13.116Z,99.90
2022-08-11T03:13:26.494Z,99.90
2022-08-11T03:16:45.648Z,99.90
2022-08-11T03:19:22.997Z,99.90
2022-08-11T03:22:32.846Z,99.90
2022-08-11T03:25:12.905Z,99.90
2022-08-11T03:28:03.398Z,99.90
2022-08-11T03:33:38.003Z,99.90
2022-08-11T03:37:15.530Z,99.90
2022-08-11T03:40:09.212Z,99.90
2022-08-11T03:43:03.552Z,99.90
2022-08-11T03:45:40.927Z,99.90
2022-08-11T03:48:27.933Z,99.90
2022-08-11T03:51:44.985Z,99.90
2022-08-11T03:54:50.539Z,99.90
2022-08-11T03:57:47.121Z,99.90
2022-08-11T04:00:25.620Z,99.90
2022-08-11T04:03:31.071Z,99.90
2022-08-11T04:06:23.405Z,99.90
2022-08-11T04:09:46.322Z,99.90
2022-08-11T04:15:37.999Z,99.90
2022-08-11T04:18:39.172Z,99.90
2022-08-11T04:21:44.814Z,99.90
2022-08-11T04:27:36.821Z,99.90
2022-08-11T04:30:09.207Z,99.90
2022-08-11T04:33:29.776Z,99.90
2022-08-11T04:36:59.563Z,99.90
2022-08-11T04:40:03.912Z,99.90
2022-08-11T04:43:08.150Z,99.90
2022-08-11T04:46:19.001Z,99.90
2022-08-11T04:52:22.058Z,99.90
2022-08-11T04:55:43.347Z,99.90
2022-08-11T04:58:44.494Z,99.90
2022-08-11T05:04:40.065Z,99.90
2022-08-11T05:09:49.924Z,99.90
2022-08-11T05:12:37.714Z,99.90
2022-08-11T05:15:24.688Z,99.90
2022-08-11T05:18:44.178Z,99.90
2022-08-11T05:21:31.049Z,99.90
2022-08-11T05:24:39.245Z,99.90
2022-08-11T05:27:27.760Z,99.90
2022-08-11T05:30:27.077Z,99.90
2022-08-11T05:33:26.231Z,99.90
2022-08-11T05:36:19.153Z,99.90
2022-08-11T05:39:20.282Z,99.90
2022-08-11T05:42:29.819Z,99.90
2022-08-11T05:45:28.402Z,99.90
2022-08-11T05:51:30.025Z,99.90
2022-08-11T05:54:29.122Z,99.90
2022-08-11T05:57:01.233Z,99.90
2022-08-11T05:59:29.494Z,99.90
2022-08-11T06:02:05.806Z,99.90
2022-08-11T06:04:33.330Z,99.90
2022-08-11T06:07:04.043Z,99.90
2022-08-11T06:09:55.493Z,99.90
2022-08-11T06:12:32.126Z,99.90
2022-08-11T06:15:05.752Z,99.90
2022-08-11T06:17:39.162Z,99.90
2022-08-11T06:20:13.347Z,99.90
2022-08-11T06:22:43.647Z,99.90
2022-08-11T06:25:12.272Z,99.90
2022-08-11T06:27:41.520Z,99.90
2022-08-11T06:30:13.492Z,99.90
2022-08-11T06:32:54.379Z,99.90
2022-08-11T06:35:46.746Z,99.90
2022-08-11T06:38:36.638Z,99.90
2022-08-11T06:41:33.530Z,99.90
2022-08-11T06:44:14.830Z,99.90
2022-08-11T06:46:51.214Z,99.60
2022-08-11T06:49:39.729Z,99.40
2022-08-11T06:52:34.596Z,99.20
2022-08-11T06:55:58.096Z,99.00
2022-08-11T06:58:41.297Z,99.00
2022-08-11T07:01:13.188Z,99.00
2022-08-11T07:04:05.745Z,99.00
2022-08-11T07:06:51.074Z,99.10
2022-08-11T07:10:01.148Z,99.20
2022-08-11T07:13:06.472Z,99.10
2022-08-11T07:16:12.464Z,99.00
2022-08-11T07:18:55.229Z,98.90
2022-08-11T07:22:02.631Z,99.00
2022-08-11T07:24:59.359Z,99.10
2022-08-11T07:27:54.746Z,98.90
2022-08-11T07:30:21.575Z,99.10
2022-08-11T07:32:54.891Z,97.50
2022-08-11T07:35:31.219Z,97.80
2022-08-11T07:38:01.634Z,97.10
2022-08-11T07:40:29.901Z,95.90
2022-08-11T07:42:58.793Z,95.00
2022-08-11T07:45:45.524Z,94.00
2022-08-11T07:48:33.651Z,93.70
2022-08-11T07:51:20.002Z,93.40
2022-08-11T07:53:58.474Z,93.40
2022-08-11T07:56:48.754Z,93.10
2022-08-11T08:00:03.893Z,93.30
2022-08-11T08:02:45.418Z,93.60
2022-08-11T08:05:30.940Z,93.30
2022-08-11T08:08:17.344Z,93.20
2022-08-11T08:11:02.915Z,92.30
2022-08-11T08:13:50.862Z,91.80
2022-08-11T08:16:36.405Z,90.60
2022-08-11T08:19:03.171Z,90.90
2022-08-11T08:21:29.827Z,90.50
2022-08-11T08:23:58.614Z,90.10
2022-08-11T08:26:51.574Z,90.20
2022-08-11T08:29:38.631Z,90.00
2022-08-11T08:32:06.872Z,90.30
2022-08-11T08:34:36.832Z,89.20
2022-08-11T08:37:16.123Z,89.40
2022-08-11T08:39:53.228Z,88.20
2022-08-11T08:42:29.833Z,86.30
2022-08-11T08:45:04.922Z,86.00
2022-08-11T08:47:43.041Z,83.90
2022-08-11T08:50:21.409Z,84.40
2022-08-11T08:53:04.984Z,85.50
2022-08-11T08:55:33.607Z,85.00
2022-08-11T08:58:01.984Z,82.80
2022-08-11T09:00:40.709Z,81.70
2022-08-11T09:03:29.569Z,82.00
2022-08-11T09:05:56.190Z,82.30
2022-08-11T09:08:24.130Z,82.20
2022-08-11T09:11:13.764Z,81.50
2022-08-11T09:13:44.268Z,79.40
2022-08-11T09:16:12.308Z,79.90
2022-08-11T09:18:41.512Z,78.90
2022-08-11T09:21:08.658Z,78.60
2022-08-11T09:24:14.970Z,77.50
2022-08-11T09:27:01.018Z,77.90
2022-08-11T09:29:29.279Z,77.20
2022-08-11T09:31:56.809Z,77.50
2022-08-11T09:34:25.042Z,78.50
2022-08-11T09:37:11.331Z,79.40
2022-08-11T09:39:59.433Z,77.70
2022-08-11T09:42:47.038Z,76.90
2022-08-11T09:45:14.504Z,77.00
2022-08-11T09:47:43.562Z,77.70
2022-08-11T09:50:10.945Z,77.20
2022-08-11T09:52:52.364Z,76.80
2022-08-11T09:55:25.074Z,75.90
2022-08-11T09:58:10.601Z,74.50
2022-08-11T10:00:40.127Z,73.10
2022-08-11T10:03:27.111Z,74.20
2022-08-11T10:06:16.839Z,73.30
2022-08-11T10:08:44.237Z,73.20
2022-08-11T10:11:17.320Z,73.10
2022-08-11T10:14:33.248Z,72.60
2022-08-11T10:16:52.174Z,74.20
2022-08-11T10:19:22.026Z,73.80
2022-08-11T10:22:12.401Z,73.30
2022-08-11T10:25:00.462Z,72.70
2022-08-11T10:28:30.799Z,73.80
2022-08-11T10:30:33.129Z,72.50
2022-08-11T10:33:20.017Z,73.00
2022-08-11T10:36:06.151Z,71.10
2022-08-11T10:38:45.714Z,72.10
2022-08-11T10:41:32.262Z,71.80
2022-08-11T10:44:02.483Z,72.50
2022-08-11T10:46:49.683Z,72.90
2022-08-11T10:49:17.242Z,72.60
2022-08-11T10:52:03.940Z,73.30
2022-08-11T10:54:51.991Z,72.20
2022-08-11T10:57:38.200Z,73.10
2022-08-11T11:00:06.966Z,72.80
2022-08-11T11:02:34.452Z,72.00
2022-08-11T11:05:12.441Z,72.80
2022-08-11T11:07:50.077Z,72.50
2022-08-11T11:10:16.921Z,72.30
2022-08-11T11:13:10.055Z,72.00
2022-08-11T11:15:58.580Z,72.10
2022-08-11T11:18:37.561Z,71.80
2022-08-11T11:21:08.205Z,70.50
2022-08-11T11:23:47.240Z,69.30
2022-08-11T11:26:41.232Z,70.00
2022-08-11T11:29:35.877Z,69.00
2022-08-11T11:32:30.284Z,69.70
2022-08-11T11:35:15.352Z,70.30
2022-08-11T11:38:03.415Z,71.30
2022-08-11T11:40:32.887Z,72.00
2022-08-11T11:43:00.301Z,71.80
2022-08-11T11:45:27.263Z,71.40
2022-08-11T11:47:56.379Z,70.40
2022-08-11T11:50:35.748Z,70.20
2022-08-11T11:53:06.953Z,71.00
2022-08-11T11:55:34.987Z,71.00
2022-08-11T11:58:22.124Z,71.80
2022-08-11T12:01:09.739Z,68.90
2022-08-11T12:03:37.976Z,69.90
2022-08-11T12:06:06.824Z,68.90
2022-08-11T12:08:33.864Z,68.70
2022-08-11T12:11:25.223Z,67.40
2022-08-11T12:13:57.214Z,67.60
2022-08-11T12:16:33.425Z,68.30
2022-08-11T12:19:13.542Z,68.50
2022-08-11T12:22:00.700Z,69.70
2022-08-11T12:24:48.703Z,69.20
2022-08-11T12:27:24.966Z,68.80
2022-08-11T12:30:01.001Z,69.90
2022-08-11T12:32:30.690Z,70.20
2022-08-11T12:34:57.801Z,68.70
2022-08-11T12:37:43.543Z,69.50
2022-08-11T12:40:42.802Z,69.60
2022-08-11T12:43:40.706Z,70.30
2022-08-11T12:46:21.549Z,68.50
2022-08-11T12:49:10.892Z,69.50
2022-08-11T12:52:11.126Z,70.10
2022-08-11T12:54:54.252Z,68.70
2022-08-11T12:57:50.515Z,68.40
2022-08-11T13:00:36.973Z,67.90
2022-08-11T13:03:25.362Z,68.90
2022-08-11T13:05:54.876Z,69.00
2022-08-11T13:08:24.959Z,68.80
2022-08-11T13:11:15.747Z,68.80
2022-08-11T13:13:53.810Z,67.60
2022-08-11T13:16:28.968Z,68.30
2022-08-11T13:19:00.869Z,68.00
2022-08-11T13:21:28.542Z,67.40
2022-08-11T13:24:01.507Z,65.30
2022-08-11T13:26:43.319Z,65.80
2022-08-11T13:29:20.061Z,66.00
2022-08-11T13:31:47.607Z,65.80
2022-08-11T13:34:16.900Z,65.10
2022-08-11T13:36:44.660Z,65.90
2022-08-11T13:39:12.848Z,64.40
2022-08-11T13:41:45.022Z,65.40
2022-08-11T13:44:21.625Z,65.50
2022-08-11T13:46:52.936Z,66.20
2022-08-11T13:49:21.887Z,65.40
2022-08-11T13:51:49.467Z,66.20
2022-08-11T13:54:19.292Z,64.70
2022-08-11T13:56:48.030Z,63.40
2022-08-11T13:59:20.221Z,63.60
2022-08-11T14:02:19.596Z,63.20
2022-08-11T14:04:52.717Z,63.90
2022-08-11T14:07:22.786Z,64.50
2022-08-11T14:09:56.651Z,63.80
2022-08-11T14:12:44.648Z,63.10
2022-08-11T14:15:35.420Z,63.20
2022-08-11T14:18:13.551Z,62.70
2022-08-11T14:21:01.348Z,63.00
2022-08-11T14:23:35.435Z,61.80
2022-08-11T14:26:22.575Z,62.70
2022-08-11T14:28:53.118Z,62.30
2022-08-11T14:31:19.959Z,61.40
2022-08-11T14:34:00.139Z,62.30
2022-08-11T14:36:39.816Z,62.00
2022-08-11T14:39:12.548Z,61.90
2022-08-11T14:42:11.437Z,61.60
2022-08-11T14:45:01.218Z,62.30
2022-08-11T14:47:29.792Z,61.90
2022-08-11T14:50:09.257Z,61.50
2022-08-11T14:52:38.962Z,61.50
2022-08-11T14:55:26.233Z,62.40
2022-08-11T14:58:04.699Z,61.50
2022-08-11T15:00:34.125Z,61.10
2022-08-11T15:03:12.731Z,60.90
2022-08-11T15:05:55.910Z,61.60
2022-08-11T15:08:47.223Z,62.20
2022-08-11T15:11:35.318Z,62.20
2022-08-11T15:14:04.672Z,62.00
2022-08-11T15:16:50.778Z,61.90
2022-08-11T15:19:20.937Z,61.80
2022-08-11T15:22:07.710Z,63.10
2022-08-11T15:24:36.283Z,62.90
2022-08-11T15:27:27.590Z,63.70
2022-08-11T15:30:21.018Z,64.00
2022-08-11T15:33:25.531Z,63.30
2022-08-11T15:36:12.712Z,64.20
2022-08-11T15:38:43.898Z,64.00
2022-08-11T15:41:34.035Z,64.30
2022-08-11T15:44:44.697Z,64.60
2022-08-11T15:47:14.259Z,64.10
2022-08-11T15:50:12.546Z,63.90
2022-08-11T15:52:34.386Z,64.70
2022-08-11T15:55:08.527Z,64.70
2022-08-11T15:57:55.498Z,64.70
2022-08-11T16:00:41.465Z,65.40
2022-08-11T16:04:07.435Z,65.40
2022-08-11T16:06:14.644Z,65.20
2022-08-11T16:08:44.794Z,65.40
2022-08-11T16:11:13.223Z,65.30
2022-08-11T16:13:40.862Z,64.70
2022-08-11T16:16:15.314Z,64.40
2022-08-11T16:18:52.114Z,64.10
2022-08-11T16:21:34.322Z,64.10
2022-08-11T16:24:06.308Z,64.60
2022-08-11T16:27:08.419Z,64.50
2022-08-11T16:29:25.233Z,64.90
2022-08-11T16:32:13.533Z,65.30
2022-08-11T16:35:00.464Z,65.60
2022-08-11T16:37:46.786Z,65.70
2022-08-11T16:40:15.066Z,66.70
2022-08-11T16:43:10.048Z,65.10
2022-08-11T16:45:58.559Z,65.80
2022-08-11T16:48:36.521Z,65.50
2022-08-11T16:51:10.492Z,66.10
2022-08-11T16:53:54.594Z,66.00
2022-08-11T16:56:34.053Z,66.70
2022-08-11T16:59:16.355Z,66.50
2022-08-11T17:01:58.070Z,66.70
2022-08-11T17:04:54.951Z,66.30
2022-08-11T17:07:43.200Z,67.10
2022-08-11T17:11:01.699Z,67.20
2022-08-11T17:13:58.802Z,67.10
2022-08-11T17:16:32.017Z,67.40
2022-08-11T17:19:02.836Z,67.20
2022-08-11T17:21:33.800Z,67.40
2022-08-11T17:24:08.756Z,66.90
2022-08-11T17:26:55.622Z,67.60
2022-08-11T17:29:54.764Z,67.70
2022-08-11T17:32:57.072Z,66.90
2022-08-11T17:35:32.810Z,66.90
2022-08-11T17:38:23.900Z,67.50
2022-08-11T17:41:22.788Z,67.20
2022-08-11T17:44:10.372Z,67.50
2022-08-11T17:46:56.920Z,67.70
2022-08-11T17:49:24.903Z,67.50
2022-08-11T17:52:10.549Z,66.50
2022-08-11T17:54:57.927Z,66.80
2022-08-11T17:57:47.676Z,67.60
2022-08-11T18:00:15.362Z,67.70
2022-08-11T18:03:03.558Z,68.00
2022-08-11T18:05:33.542Z,68.00
2022-08-11T18:08:23.862Z,67.60
2022-08-11T18:11:10.422Z,67.70
2022-08-11T18:13:59.009Z,68.50
2022-08-11T18:16:44.342Z,68.10
2022-08-11T18:19:30.695Z,68.50
2022-08-11T18:22:32.865Z,68.60
2022-08-11T18:25:24.898Z,68.70
2022-08-11T18:28:12.883Z,68.90
2022-08-11T18:31:03.816Z,69.00
2022-08-11T18:34:07.157Z,69.00
2022-08-11T18:37:00.240Z,69.20
2022-08-11T18:39:56.256Z,69.40
2022-08-11T18:42:43.442Z,69.50
2022-08-11T18:45:35.174Z,69.60
2022-08-11T18:48:34.043Z,69.90
2022-08-11T18:51:31.287Z,70.20
2022-08-11T18:54:26.390Z,70.30
2022-08-11T18:57:12.841Z,70.60
2022-08-11T19:00:00.562Z,70.90
2022-08-11T19:02:49.112Z,71.00
2022-08-11T19:06:05.946Z,71.40
2022-08-11T19:08:47.622Z,71.70
2022-08-11T19:11:33.700Z,72.00
2022-08-11T19:14:23.121Z,72.20
2022-08-11T19:17:10.647Z,73.10
2022-08-11T19:19:58.748Z,73.50
2022-08-11T19:22:46.145Z,73.40
2022-08-11T19:25:33.420Z,73.20
2022-08-11T19:28:22.958Z,73.50
2022-08-11T19:31:09.604Z,74.00
2022-08-11T19:34:02.627Z,73.70
2022-08-11T19:36:56.616Z,73.70
2022-08-11T19:42:28.758Z,74.10
2022-08-11T19:45:15.367Z,74.20
2022-08-11T19:48:28.509Z,74.30
2022-08-11T19:51:09.629Z,74.60
2022-08-11T19:53:56.478Z,74.80
2022-08-11T19:56:42.069Z,74.80
2022-08-11T20:02:14.811Z,75.60
2022-08-11T20:05:01.064Z,75.80
2022-08-11T20:07:48.708Z,76.00
2022-08-11T20:10:38.275Z,76.20
2022-08-11T20:13:26.740Z,76.40
2022-08-11T20:16:14.138Z,76.50
2022-08-11T20:19:00.821Z,76.30
2022-08-11T20:21:46.900Z,76.60
2022-08-11T20:24:33.851Z,76.60
2022-08-11T20:27:24.713Z,76.60
2022-08-11T20:30:12.185Z,77.00
2022-08-11T20:32:59.227Z,77.10
2022-08-11T20:35:45.728Z,77.80
2022-08-11T20:38:32.958Z,77.70
2022-08-11T20:41:20.203Z,78.10
2022-08-11T20:44:09.330Z,78.40
2022-08-11T20:46:57.591Z,78.60
2022-08-11T20:49:50.601Z,79.50
2022-08-11T20:52:44.004Z,79.70
2022-08-11T20:55:46.252Z,80.20
2022-08-11T21:01:46.386Z,80.00
2022-08-11T21:04:33.317Z,80.10
2022-08-11T21:10:30.523Z,80.40
2022-08-11T21:13:26.384Z,81.20
2022-08-11T21:16:25.556Z,81.90
2022-08-11T21:19:59.569Z,82.30
2022-08-11T21:22:35.786Z,83.00
2022-08-11T21:25:25.794Z,83.20
2022-08-11T21:28:13.689Z,83.30
2022-08-11T21:30:59.557Z,83.10
2022-08-11T21:33:48.298Z,83.20
2022-08-11T21:39:24.924Z,83.50
2022-08-11T21:42:12.568Z,83.80
2022-08-11T21:45:00.194Z,83.70
2022-08-11T21:47:47.150Z,84.00
2022-08-11T21:53:18.993Z,84.30
2022-08-11T21:56:05.385Z,84.50
2022-08-11T21:58:52.278Z,84.60
2022-08-11T22:04:25.121Z,85.30
2022-08-11T22:07:11.035Z,85.40
2022-08-11T22:09:56.644Z,85.70
2022-08-11T22:12:44.968Z,86.30
2022-08-11T22:15:31.193Z,86.90
2022-08-11T22:18:16.586Z,87.40
2022-08-11T22:21:02.955Z,87.40
2022-08-11T22:23:51.653Z,87.50
2022-08-11T22:26:39.621Z,87.60
2022-08-11T22:32:33.765Z,87.70
2022-08-11T22:35:20.916Z,88.10
2022-08-11T22:38:07.567Z,88.40
2022-08-11T22:40:53.077Z,89.00
2022-08-11T22:43:38.443Z,89.40
2022-08-11T22:46:23.836Z,89.90
2022-08-11T22:49:11.217Z,90.00
2022-08-11T22:51:58.302Z,90.00
2022-08-11T22:54:44.973Z,90.00
2022-08-11T23:00:16.790Z,90.30
2022-08-11T23:08:34.854Z,90.70
2022-08-11T23:11:21.419Z,90.80
2022-08-11T23:14:07.041Z,91.00
2022-08-11T23:16:52.489Z,91.00
2022-08-11T23:20:07.034Z,91.10
2022-08-11T23:22:50.052Z,91.10
2022-08-11T23:28:21.514Z,91.30
2022-08-11T23:31:09.566Z,91.30
2022-08-11T23:33:58.617Z,91.40
2022-08-11T23:36:47.047Z,91.40
2022-08-11T23:39:33.140Z,91.50
2022-08-11T23:47:57.007Z,91.70
2022-08-11T23:50:43.132Z,91.90
2022-08-11T23:53:29.102Z,92.20
2022-08-11T23:59:00.663Z,92.60
